MAPA DE AEROPUERTO

INFORMACIÓN METAR y TAF


Deprecated: The each() function is deprecated. This message will be suppressed on further calls in /home/customer/www/clickair-va.com/public_html/VAM/vam/helpers/get_metar.php on line 20
METAR FOR GCLA
ADDS - METARS form results

(0336 UTC 25 May 2022)
Data provider http://aviationweather.gov/metar/data/
 
METAR text: GCLA 250330Z AUTO 36012KT 9999 FEW025 BKN049 20/15 Q1019
Conditions at: GCLA (LA PALMA AIRPORT, ES) observed 0330 UTC 25 May 2022
Temperature: 20.0°C (68°F)
Dewpoint: 15.0°C (59°F) [RH = 73%]
Pressure (altimeter): 30.09 inches Hg (1019.0 mb)
Winds: from the N (360 degrees) at 14 MPH (12 knots; 6.2 m/s)
Visibility: 6 or more miles (10+ km)
Ceiling: 4900 feet AGL
Clouds: few clouds at 2500 feet AGL
broken clouds at 4900 feet AGL
Weather: no significant weather observed at this time

METAR text: GCLA 250300Z AUTO 01013KT 9999 BKN026 OVC047 20/15 Q1019
Conditions at: GCLA (LA PALMA AIRPORT, ES) observed 0300 UTC 25 May 2022
Temperature: 20.0°C (68°F)
Dewpoint: 15.0°C (59°F) [RH = 73%]
Pressure (altimeter): 30.09 inches Hg (1019.0 mb)
Winds: from the N (10 degrees) at 15 MPH (13 knots; 6.7 m/s)
Visibility: 6 or more miles (10+ km)
Ceiling: 2600 feet AGL
Clouds: broken clouds at 2600 feet AGL
overcast cloud deck at 4700 feet AGL
Weather: no significant weather observed at this time

Forecast for: GCLA (LA PALMA AIRPORT, ES)
Text: TAF GCLA 250200Z 2503/2603 36009KT 9999 BKN035 TX24/2514Z TN20/2506Z
Forecast period: 0300 UTC 25 May 2022 to 0300 UTC 26 May 2022
Forecast type: FROM: standard forecast or significant change
Winds: from the N (360 degrees) at 10 MPH (9 knots; 4.6 m/s)
Visibility: 6 or more miles (10+ km)
Ceiling: 3500 feet AGL
Clouds: broken clouds at 3500 feet AGL
Weather: no significant weather forecast for this period